createdAt,value
2022-09-09T00:03:08.731Z,17.37
2022-09-09T00:08:40.103Z,17.44
2022-09-09T00:14:09.255Z,17.39
2022-09-09T00:19:41.029Z,17.32
2022-09-09T00:25:12.320Z,17.38
2022-09-09T00:30:36.115Z,17.39
2022-09-09T00:35:59.571Z,17.33
2022-09-09T00:41:23.729Z,17.39
2022-09-09T00:46:58.859Z,17.51
2022-09-09T00:52:53.346Z,17.37
2022-09-09T00:58:15.209Z,17.44
2022-09-09T01:03:59.829Z,17.41
2022-09-09T01:09:46.887Z,17.58
2022-09-09T01:15:18.841Z,17.55
2022-09-09T01:20:47.082Z,17.54
2022-09-09T01:26:15.625Z,17.38
2022-09-09T01:31:43.803Z,17.45
2022-09-09T01:37:11.312Z,17.58
2022-09-09T01:42:33.075Z,17.55
2022-09-09T01:47:54.776Z,17.62
2022-09-09T01:53:19.061Z,17.52
2022-09-09T01:58:58.994Z,17.51
2022-09-09T02:04:39.751Z,17.38
2022-09-09T02:10:30.674Z,17.52
2022-09-09T02:15:52.356Z,17.23
2022-09-09T02:21:15.786Z,17.12
2022-09-09T02:26:41.944Z,17.26
2022-09-09T02:32:09.005Z,17.17
2022-09-09T02:37:37.493Z,16.90
2022-09-09T02:43:00.997Z,16.79
2022-09-09T02:48:31.122Z,16.84
2022-09-09T02:54:27.852Z,16.75
2022-09-09T02:59:50.823Z,16.75
2022-09-09T03:05:14.034Z,16.69
2022-09-09T03:10:36.199Z,16.79
2022-09-09T03:15:57.971Z,16.69
2022-09-09T03:21:19.736Z,16.72
2022-09-09T03:26:42.464Z,16.71
2022-09-09T03:32:04.469Z,16.82
2022-09-09T03:37:26.261Z,16.82
2022-09-09T03:42:49.047Z,16.91
2022-09-09T03:48:12.895Z,17.02
2022-09-09T03:53:35.290Z,17.21
2022-09-09T03:58:57.014Z,17.28
2022-09-09T04:04:18.708Z,17.28
2022-09-09T04:09:40.461Z,17.20
2022-09-09T04:15:03.070Z,17.25
2022-09-09T04:20:24.886Z,17.39
2022-09-09T04:25:48.020Z,17.43
2022-09-09T04:31:19.616Z,17.47
2022-09-09T04:36:41.475Z,17.46
2022-09-09T04:42:04.177Z,17.44
2022-09-09T04:47:25.949Z,17.25
2022-09-09T04:52:47.737Z,17.16
2022-09-09T04:58:09.596Z,16.91
2022-09-09T05:03:31.345Z,16.84
2022-09-09T05:08:53.582Z,16.82
2022-09-09T05:14:15.919Z,17.06
2022-09-09T05:19:37.753Z,17.13
2022-09-09T05:24:59.505Z,17.15
2022-09-09T05:30:23.645Z,17.10
2022-09-09T05:35:45.476Z,17.11
2022-09-09T05:41:08.338Z,17.25
2022-09-09T05:46:30.297Z,17.24
2022-09-09T05:51:52.256Z,17.36
2022-09-09T05:57:14.175Z,17.40
2022-09-09T06:02:38.191Z,17.41
2022-09-09T06:07:59.947Z,17.59
2022-09-09T06:13:21.639Z,17.62
2022-09-09T06:18:44.504Z,17.69
2022-09-09T06:24:08.270Z,17.78
2022-09-09T06:29:29.991Z,17.83
2022-09-09T06:34:51.765Z,17.84
2022-09-09T06:40:13.528Z,17.88
2022-09-09T06:45:37.568Z,17.93
2022-09-09T06:51:14.764Z,17.99
2022-09-09T06:56:38.637Z,18.08
2022-09-09T07:02:00.498Z,18.01
2022-09-09T07:07:22.283Z,18.05
2022-09-09T07:12:44.051Z,18.10
2022-09-09T07:18:06.328Z,18.15
2022-09-09T07:23:28.044Z,18.23
2022-09-09T07:28:50.696Z,18.33
2022-09-09T07:34:12.481Z,18.30
2022-09-09T07:39:34.530Z,18.40
2022-09-09T07:44:56.281Z,18.47
2022-09-09T07:50:18.052Z,18.53
2022-09-09T07:55:40.015Z,18.50
2022-09-09T08:01:07.992Z,18.45
2022-09-09T08:06:34.060Z,18.45
2022-09-09T08:11:57.414Z,18.58
2022-09-09T08:17:19.087Z,18.65
2022-09-09T08:22:41.135Z,18.77
2022-09-09T08:28:04.215Z,18.90
2022-09-09T08:33:26.575Z,18.91
2022-09-09T08:38:51.275Z,18.98
2022-09-09T08:44:24.328Z,19.15
2022-09-09T08:49:57.105Z,19.25
2022-09-09T08:55:28.935Z,19.30
2022-09-09T09:01:09.215Z,19.46
2022-09-09T09:06:50.950Z,19.57
2022-09-09T09:12:25.230Z,19.63
2022-09-09T09:17:47.071Z,19.60
2022-09-09T09:23:20.457Z,19.64
2022-09-09T09:28:42.225Z,19.71
2022-09-09T09:34:04.078Z,19.59
2022-09-09T09:45:36.318Z,18.89
2022-09-09T09:51:01.614Z,19.05
2022-09-09T09:56:30.055Z,19.29
2022-09-09T10:01:51.969Z,19.56
2022-09-09T10:07:20.775Z,19.74
2022-09-09T10:12:51.327Z,19.84
2022-09-09T10:18:34.064Z,20.00
2022-09-09T10:24:14.321Z,20.19
2022-09-09T10:29:44.952Z,20.35
2022-09-09T10:35:25.145Z,20.46
2022-09-09T10:40:52.370Z,20.58
2022-09-09T10:46:31.037Z,20.72
2022-09-09T10:52:07.815Z,20.75
2022-09-09T10:57:32.928Z,20.68
2022-09-09T11:03:01.517Z,20.69
2022-09-09T11:08:29.722Z,20.84
2022-09-09T11:14:15.894Z,20.92
2022-09-09T11:19:44.581Z,20.80
2022-09-09T11:25:16.991Z,20.47
2022-09-09T11:30:57.583Z,20.26
2022-09-09T11:36:39.099Z,20.16
2022-09-09T11:42:21.419Z,20.04
2022-09-09T11:47:53.445Z,19.93
2022-09-09T11:53:15.103Z,19.81
2022-09-09T11:58:54.389Z,19.81
2022-09-09T12:04:28.863Z,19.90
2022-09-09T12:09:57.610Z,20.18
2022-09-09T12:15:23.928Z,20.28
2022-09-09T12:21:30.580Z,20.14
2022-09-09T12:27:08.086Z,20.38
2022-09-09T12:32:31.020Z,20.67
2022-09-09T12:38:04.234Z,20.88
2022-09-09T12:43:27.491Z,20.98
2022-09-09T12:48:49.313Z,20.90
2022-09-09T12:54:15.403Z,20.78
2022-09-09T12:59:43.037Z,20.68
2022-09-09T13:05:17.330Z,20.68
2022-09-09T13:10:54.545Z,20.81
2022-09-09T13:16:32.568Z,20.90
2022-09-09T13:21:55.004Z,20.97
2022-09-09T13:27:30.383Z,21.02
2022-09-09T13:33:04.808Z,21.07
2022-09-09T13:38:29.509Z,21.15
2022-09-09T13:43:53.057Z,21.24
2022-09-09T13:49:18.104Z,21.16
2022-09-09T13:54:40.600Z,21.16
2022-09-09T14:00:06.359Z,21.18
2022-09-09T14:05:30.644Z,21.35
2022-09-09T14:10:53.301Z,21.40
2022-09-09T14:16:15.037Z,21.43
2022-09-09T14:21:36.754Z,21.53
2022-09-09T14:26:58.479Z,21.52
2022-09-09T14:32:20.466Z,21.39
2022-09-09T14:37:42.184Z,21.32
2022-09-09T14:43:05.752Z,21.27
2022-09-09T14:48:27.448Z,21.29
2022-09-09T14:53:53.017Z,21.39
2022-09-09T14:59:14.726Z,21.41
2022-09-09T15:04:36.486Z,21.47
2022-09-09T15:09:58.608Z,21.45
2022-09-09T15:15:20.378Z,21.45
2022-09-09T15:20:47.200Z,21.34
2022-09-09T15:26:10.451Z,21.26
2022-09-09T15:31:33.080Z,21.21
2022-09-09T15:36:56.446Z,21.19
2022-09-09T15:42:18.171Z,21.18
2022-09-09T15:47:40.421Z,21.12
2022-09-09T15:53:02.157Z,21.01
2022-09-09T15:58:23.926Z,20.95
2022-09-09T16:03:47.671Z,20.95
2022-09-09T16:09:10.925Z,20.97
2022-09-09T16:14:36.604Z,20.96
2022-09-09T16:19:58.591Z,20.97
2022-09-09T16:25:21.419Z,20.95
2022-09-09T16:30:43.145Z,20.89
2022-09-09T16:36:09.767Z,20.82
2022-09-09T16:41:32.491Z,20.81
2022-09-09T16:47:00.240Z,20.60
2022-09-09T16:52:22.554Z,20.50
2022-09-09T16:57:44.291Z,20.36
2022-09-09T17:03:06.147Z,20.16
2022-09-09T17:08:27.899Z,20.04
2022-09-09T17:13:50.466Z,19.98
2022-09-09T17:19:13.672Z,19.74
2022-09-09T17:24:36.385Z,19.66
2022-09-09T17:29:59.292Z,19.58
2022-09-09T17:35:21.158Z,19.50
2022-09-09T17:40:43.720Z,19.45
2022-09-09T17:46:17.293Z,19.43
2022-09-09T17:51:39.463Z,19.30
2022-09-09T17:57:01.636Z,19.33
2022-09-09T18:02:23.444Z,19.38
2022-09-09T18:07:45.437Z,19.11
2022-09-09T18:13:09.956Z,18.99
2022-09-09T18:18:31.672Z,19.12
2022-09-09T18:23:53.666Z,19.20
2022-09-09T18:29:25.268Z,18.98
2022-09-09T18:34:47.118Z,19.03
2022-09-09T18:40:08.878Z,18.92
2022-09-09T18:45:30.608Z,18.84
2022-09-09T18:50:52.671Z,18.77
2022-09-09T18:56:14.454Z,18.86
2022-09-09T19:01:36.373Z,18.95
2022-09-09T19:06:58.894Z,18.92
2022-09-09T19:12:20.955Z,18.84
2022-09-09T19:17:42.790Z,18.75
2022-09-09T19:23:05.424Z,18.77
2022-09-09T19:28:27.512Z,18.58
2022-09-09T19:33:50.801Z,18.56
2022-09-09T19:39:14.072Z,18.61
2022-09-09T19:44:35.847Z,18.65
2022-09-09T19:49:57.577Z,18.50
2022-09-09T19:55:19.983Z,18.44
2022-09-09T20:00:41.817Z,18.41
2022-09-09T20:06:08.538Z,18.43
2022-09-09T20:11:30.498Z,18.26
2022-09-09T20:16:52.404Z,18.31
2022-09-09T20:22:14.539Z,18.31
2022-09-09T20:27:36.208Z,18.38
2022-09-09T20:32:57.928Z,18.41
2022-09-09T20:38:19.620Z,18.43
2022-09-09T20:43:49.458Z,18.15
2022-09-09T20:49:11.624Z,18.01
2022-09-09T20:54:35.143Z,18.21
2022-09-09T20:59:56.965Z,18.30
2022-09-09T21:05:23.944Z,18.35
2022-09-09T21:10:46.938Z,18.38
2022-09-09T21:16:13.804Z,18.26
2022-09-09T21:21:36.240Z,18.09
2022-09-09T21:26:59.498Z,17.86
2022-09-09T21:32:21.386Z,17.75
2022-09-09T21:37:43.138Z,17.79
2022-09-09T21:43:06.143Z,17.73
2022-09-09T21:48:27.997Z,17.65
2022-09-09T21:53:49.844Z,17.48
2022-09-09T21:59:12.053Z,17.62
2022-09-09T22:04:36.638Z,17.56
2022-09-09T22:09:58.458Z,17.74
2022-09-09T22:15:20.579Z,17.83
2022-09-09T22:20:45.036Z,17.94
2022-09-09T22:26:07.253Z,18.01
2022-09-09T22:31:29.166Z,18.02
2022-09-09T22:36:51.076Z,18.01
2022-09-09T22:42:13.701Z,17.96
2022-09-09T22:47:35.623Z,18.06
2022-09-09T22:52:57.354Z,18.10
2022-09-09T22:58:19.052Z,18.10
2022-09-09T23:03:42.128Z,18.04
2022-09-09T23:09:04.118Z,18.10
2022-09-09T23:14:26.117Z,18.15
2022-09-09T23:19:56.981Z,18.11
2022-09-09T23:25:18.822Z,17.67
2022-09-09T23:30:42.054Z,16.82
2022-09-09T23:36:08.376Z,16.83
2022-09-09T23:41:30.959Z,16.21
2022-09-09T23:46:52.639Z,16.10
2022-09-09T23:52:14.669Z,16.11
2022-09-09T23:57:36.502Z,15.86
